createdAt,value
2022-10-07T00:01:01.963Z,5.33
2022-10-07T00:03:48.905Z,4.87
2022-10-07T00:06:35.781Z,5.30
2022-10-07T00:09:23.397Z,4.43
2022-10-07T00:12:10.369Z,4.70
2022-10-07T00:14:57.212Z,4.30
2022-10-07T00:17:45.386Z,4.97
2022-10-07T00:20:38.083Z,3.97
2022-10-07T00:23:24.861Z,4.33
2022-10-07T00:26:14.673Z,3.70
2022-10-07T00:29:02.357Z,4.00
2022-10-07T00:31:51.424Z,3.77
2022-10-07T00:34:41.671Z,4.10
2022-10-07T00:37:28.455Z,4.00
2022-10-07T00:40:15.373Z,3.70
2022-10-07T00:43:23.492Z,3.50
2022-10-07T00:46:25.972Z,4.20
2022-10-07T00:49:14.375Z,3.70
2022-10-07T00:52:01.449Z,3.20
2022-10-07T00:54:53.010Z,3.33
2022-10-07T00:57:42.060Z,3.40
2022-10-07T01:00:30.149Z,3.13
2022-10-07T01:03:17.054Z,3.47
2022-10-07T01:06:05.770Z,2.83
2022-10-07T01:08:54.213Z,3.20
2022-10-07T01:12:04.227Z,2.90
2022-10-07T01:14:57.675Z,3.13
2022-10-07T01:17:53.639Z,2.77
2022-10-07T01:20:45.410Z,2.50
2022-10-07T01:24:00.345Z,2.83
2022-10-07T01:26:55.395Z,2.97
2022-10-07T01:29:56.333Z,2.90
2022-10-07T01:32:53.706Z,2.73
2022-10-07T01:35:45.297Z,2.23
2022-10-07T01:38:34.953Z,2.70
2022-10-07T01:41:23.142Z,2.50
2022-10-07T01:44:12.681Z,2.20
2022-10-07T01:46:59.685Z,2.30
2022-10-07T01:49:46.702Z,2.30
2022-10-07T01:52:47.207Z,2.57
2022-10-07T01:55:50.891Z,2.27
2022-10-07T01:58:58.409Z,2.57
2022-10-07T02:02:03.907Z,2.53
2022-10-07T02:05:09.685Z,2.40
2022-10-07T02:08:15.528Z,2.30
2022-10-07T02:11:11.580Z,1.97
2022-10-07T02:14:14.378Z,2.20
2022-10-07T02:17:07.569Z,1.90
2022-10-07T02:19:56.454Z,1.93
2022-10-07T02:22:46.654Z,1.90
2022-10-07T02:25:40.065Z,2.17
2022-10-07T02:28:29.030Z,2.10
2022-10-07T02:31:18.368Z,2.07
2022-10-07T02:34:09.072Z,2.07
2022-10-07T02:37:01.202Z,2.07
2022-10-07T02:39:49.586Z,1.90
2022-10-07T02:42:55.481Z,2.23
2022-10-07T02:45:50.354Z,1.80
2022-10-07T02:48:44.082Z,1.67
2022-10-07T02:51:38.581Z,1.90
2022-10-07T02:54:43.165Z,2.00
2022-10-07T02:57:35.099Z,1.90
2022-10-07T03:00:22.882Z,1.90
2022-10-07T03:03:11.755Z,1.87
2022-10-07T03:06:08.129Z,2.00
2022-10-07T03:08:57.991Z,2.40
2022-10-07T03:11:44.961Z,1.83
2022-10-07T03:14:34.637Z,1.80
2022-10-07T03:17:21.853Z,2.00
2022-10-07T03:20:10.168Z,1.67
2022-10-07T03:22:57.117Z,1.90
2022-10-07T03:25:48.852Z,1.50
2022-10-07T03:28:37.487Z,1.80
2022-10-07T03:31:27.426Z,1.80
2022-10-07T03:34:17.318Z,2.07
2022-10-07T03:37:07.947Z,1.80
2022-10-07T03:39:54.880Z,1.70
2022-10-07T03:42:43.391Z,1.40
2022-10-07T03:45:31.811Z,1.60
2022-10-07T03:48:18.924Z,1.63
2022-10-07T03:51:07.159Z,1.60
2022-10-07T03:53:57.359Z,1.60
2022-10-07T03:56:46.166Z,1.60
2022-10-07T03:59:34.509Z,1.93
2022-10-07T04:02:24.703Z,1.90
2022-10-07T04:05:11.613Z,1.60
2022-10-07T04:07:59.598Z,1.80
2022-10-07T04:10:46.995Z,1.80
2022-10-07T04:13:34.096Z,1.50
2022-10-07T04:16:23.376Z,1.87
2022-10-07T04:19:10.862Z,1.50
2022-10-07T04:21:57.739Z,1.60
2022-10-07T04:25:04.717Z,1.87
2022-10-07T04:27:56.325Z,1.30
2022-10-07T04:30:49.011Z,1.97
2022-10-07T04:33:40.522Z,1.90
2022-10-07T04:36:27.774Z,1.70
2022-10-07T04:39:29.938Z,1.60
2022-10-07T04:42:48.230Z,1.43
2022-10-07T04:45:36.643Z,1.63
2022-10-07T04:48:24.332Z,1.60
2022-10-07T04:51:12.407Z,1.40
2022-10-07T04:54:01.575Z,1.50
2022-10-07T04:56:54.704Z,1.40
2022-10-07T04:59:45.018Z,1.50
2022-10-07T05:02:36.520Z,1.40
2022-10-07T05:05:26.420Z,1.60
2022-10-07T05:08:16.175Z,1.63
2022-10-07T05:11:04.007Z,1.43
2022-10-07T05:13:58.317Z,1.50
2022-10-07T05:16:47.881Z,1.50
2022-10-07T05:19:35.617Z,1.47
2022-10-07T05:22:23.095Z,1.57
2022-10-07T05:25:10.110Z,1.43
2022-10-07T05:27:57.441Z,1.50
2022-10-07T05:30:44.614Z,1.37
2022-10-07T05:33:31.646Z,1.70
2022-10-07T05:36:20.059Z,1.37
2022-10-07T05:39:09.250Z,1.30
2022-10-07T05:42:06.427Z,1.60
2022-10-07T05:44:59.995Z,1.30
2022-10-07T05:47:48.118Z,1.13
2022-10-07T05:50:35.568Z,1.43
2022-10-07T05:53:23.510Z,1.27
2022-10-07T05:56:12.588Z,1.10
2022-10-07T05:58:59.797Z,1.47
2022-10-07T06:01:49.736Z,1.47
2022-10-07T06:04:43.087Z,1.63
2022-10-07T06:07:30.445Z,1.47
2022-10-07T06:10:37.808Z,1.50
2022-10-07T06:13:24.730Z,1.60
2022-10-07T06:16:12.717Z,1.30
2022-10-07T06:18:59.864Z,1.30
2022-10-07T06:21:48.533Z,1.70
2022-10-07T06:24:35.453Z,1.57
2022-10-07T06:27:24.574Z,1.30
2022-10-07T06:30:13.055Z,1.40
2022-10-07T06:32:59.921Z,1.50
2022-10-07T06:35:47.906Z,1.30
2022-10-07T06:38:34.947Z,1.37
2022-10-07T06:41:23.523Z,1.33
2022-10-07T06:44:22.820Z,1.43
2022-10-07T06:47:12.353Z,1.20
2022-10-07T06:50:02.105Z,1.63
2022-10-07T06:52:50.006Z,1.50
2022-10-07T06:55:37.712Z,1.20
2022-10-07T06:58:26.662Z,1.53
2022-10-07T07:01:14.793Z,1.30
2022-10-07T07:04:02.235Z,1.60
2022-10-07T07:06:49.165Z,1.50
2022-10-07T07:09:36.179Z,1.70
2022-10-07T07:12:25.463Z,1.40
2022-10-07T07:15:14.562Z,1.30
2022-10-07T07:18:02.956Z,1.83
2022-10-07T07:20:50.298Z,1.70
2022-10-07T07:23:39.312Z,1.40
2022-10-07T07:26:28.176Z,1.30
2022-10-07T07:29:16.653Z,1.77
2022-10-07T07:32:10.633Z,1.67
2022-10-07T07:35:04.386Z,1.63
2022-10-07T07:37:51.802Z,1.30
2022-10-07T07:40:39.817Z,1.50
2022-10-07T07:43:28.023Z,1.60
2022-10-07T07:46:15.019Z,1.60
2022-10-07T07:49:02.474Z,1.30
2022-10-07T07:51:50.058Z,1.23
2022-10-07T07:54:48.362Z,1.73
2022-10-07T07:57:35.283Z,1.37
2022-10-07T08:00:26.138Z,1.67
2022-10-07T08:03:21.792Z,1.50
2022-10-07T08:06:10.821Z,1.43
2022-10-07T08:08:59.295Z,1.67
2022-10-07T08:11:47.208Z,1.67
2022-10-07T08:14:37.742Z,1.80
2022-10-07T08:17:25.490Z,1.87
2022-10-07T08:20:14.527Z,1.57
2022-10-07T08:23:02.134Z,1.73
2022-10-07T08:25:53.764Z,1.60
2022-10-07T08:28:41.361Z,1.50
2022-10-07T08:31:29.365Z,1.67
2022-10-07T08:34:16.647Z,2.10
2022-10-07T08:37:04.070Z,1.47
2022-10-07T08:39:51.001Z,1.77
2022-10-07T08:42:41.504Z,1.53
2022-10-07T08:45:32.270Z,1.60
2022-10-07T08:48:24.224Z,1.70
2022-10-07T08:51:40.779Z,1.80
2022-10-07T08:54:30.767Z,1.73
2022-10-07T08:57:30.925Z,1.60
2022-10-07T09:00:21.206Z,1.93
2022-10-07T09:03:47.798Z,1.67
2022-10-07T09:06:42.870Z,2.10
2022-10-07T09:09:37.082Z,1.90
2022-10-07T09:12:38.583Z,1.73
2022-10-07T09:15:54.539Z,1.40
2022-10-07T09:18:45.873Z,1.70
2022-10-07T09:21:48.201Z,2.00
2022-10-07T09:24:35.564Z,2.17
2022-10-07T09:27:22.825Z,2.00
2022-10-07T09:30:14.180Z,2.10
2022-10-07T09:33:02.948Z,2.10
2022-10-07T09:36:08.379Z,1.70
2022-10-07T09:38:55.305Z,1.80
2022-10-07T09:41:42.409Z,2.07
2022-10-07T09:44:29.401Z,2.27
2022-10-07T09:47:23.142Z,1.73
2022-10-07T09:50:33.808Z,2.10
2022-10-07T09:53:23.101Z,1.77
2022-10-07T09:56:40.257Z,1.77
2022-10-07T09:59:33.334Z,2.23
2022-10-07T10:02:24.844Z,2.37
2022-10-07T10:05:25.130Z,1.97
2022-10-07T10:08:17.965Z,2.27
2022-10-07T10:11:23.860Z,2.27
2022-10-07T10:14:42.830Z,1.73
2022-10-07T10:17:41.487Z,1.87
2022-10-07T10:20:36.100Z,1.93
2022-10-07T10:23:40.213Z,1.77
2022-10-07T10:26:41.715Z,1.90
2022-10-07T10:29:47.292Z,2.20
2022-10-07T10:33:07.627Z,2.43
2022-10-07T10:36:15.047Z,1.80
2022-10-07T10:39:34.661Z,1.90
2022-10-07T10:42:31.534Z,1.87
2022-10-07T10:45:41.826Z,1.90
2022-10-07T10:48:34.701Z,1.97
2022-10-07T10:51:31.431Z,1.90
2022-10-07T10:54:24.486Z,2.10
2022-10-07T10:57:39.505Z,2.70
2022-10-07T11:00:35.955Z,2.47
2022-10-07T11:03:45.858Z,1.70
2022-10-07T11:06:36.878Z,1.93
2022-10-07T11:09:52.958Z,2.10
2022-10-07T11:12:44.153Z,2.13
2022-10-07T11:15:39.486Z,2.33
2022-10-07T11:18:36.224Z,2.40
2022-10-07T11:21:29.878Z,1.70
2022-10-07T11:24:29.373Z,2.03
2022-10-07T11:27:31.509Z,2.23
2022-10-07T11:30:23.329Z,1.90
2022-10-07T11:33:28.812Z,2.23
2022-10-07T11:36:28.130Z,2.20
2022-10-07T11:39:15.297Z,2.37
2022-10-07T11:42:09.250Z,2.00
2022-10-07T11:45:04.145Z,2.43
2022-10-07T11:48:00.418Z,2.10
2022-10-07T11:50:59.759Z,2.40
2022-10-07T11:53:46.805Z,1.97
2022-10-07T11:56:56.117Z,2.07
2022-10-07T11:59:48.844Z,2.40
2022-10-07T12:02:46.919Z,1.67
2022-10-07T12:05:34.048Z,2.10
2022-10-07T12:08:35.721Z,1.90
2022-10-07T12:11:22.623Z,2.30
2022-10-07T12:14:32.850Z,1.67
2022-10-07T12:17:22.838Z,2.10
2022-10-07T12:20:34.704Z,2.10
2022-10-07T12:23:30.966Z,2.30
2022-10-07T12:26:32.774Z,2.40
2022-10-07T12:29:24.637Z,1.90
2022-10-07T12:32:42.949Z,2.00
2022-10-07T12:35:31.017Z,2.00
2022-10-07T12:38:23.515Z,1.70
2022-10-07T12:41:25.108Z,2.20
2022-10-07T12:44:32.096Z,2.33
2022-10-07T12:47:29.709Z,1.83
2022-10-07T12:50:19.761Z,2.00
2022-10-07T12:53:11.024Z,2.03
2022-10-07T12:55:58.176Z,2.20
2022-10-07T12:59:25.093Z,1.90
2022-10-07T13:02:31.364Z,1.90
2022-10-07T13:05:36.429Z,2.17
2022-10-07T13:08:35.068Z,1.90
2022-10-07T13:11:51.023Z,2.10
2022-10-07T13:15:07.346Z,2.00
2022-10-07T13:18:21.726Z,1.93
2022-10-07T13:21:23.665Z,2.10
2022-10-07T13:24:20.597Z,2.20
2022-10-07T13:27:09.281Z,1.80
2022-10-07T13:29:59.158Z,2.03
2022-10-07T13:32:46.435Z,2.07
2022-10-07T13:35:38.799Z,1.83
2022-10-07T13:38:28.268Z,2.00
2022-10-07T13:41:26.277Z,1.57
2022-10-07T13:44:18.166Z,1.87
2022-10-07T13:47:07.168Z,2.10
2022-10-07T13:49:56.772Z,1.83
2022-10-07T13:52:47.069Z,1.73
2022-10-07T13:55:36.235Z,1.90
2022-10-07T13:58:23.376Z,2.07
2022-10-07T14:01:10.422Z,1.93
2022-10-07T14:04:17.631Z,2.10
2022-10-07T14:07:10.722Z,1.93
2022-10-07T14:10:00.822Z,2.00
2022-10-07T14:12:50.978Z,2.10
2022-10-07T14:15:47.947Z,1.83
2022-10-07T14:18:34.875Z,1.90
2022-10-07T14:21:21.886Z,2.00
2022-10-07T14:24:09.986Z,2.00
2022-10-07T14:26:57.462Z,2.07
2022-10-07T14:29:44.400Z,2.00
2022-10-07T14:32:49.820Z,1.97
2022-10-07T14:35:39.488Z,1.40
2022-10-07T14:38:27.590Z,1.93
2022-10-07T14:41:18.666Z,1.90
2022-10-07T14:44:07.854Z,1.87
2022-10-07T14:47:06.220Z,1.77
2022-10-07T14:49:54.997Z,1.60
2022-10-07T14:52:47.244Z,2.00
2022-10-07T14:55:35.737Z,1.70
2022-10-07T14:58:22.584Z,1.70
2022-10-07T15:01:09.536Z,1.60
2022-10-07T15:03:57.628Z,1.60
2022-10-07T15:06:50.037Z,1.57
2022-10-07T15:09:37.765Z,1.80
2022-10-07T15:12:24.609Z,2.03
2022-10-07T15:15:13.608Z,1.67
2022-10-07T15:18:00.510Z,1.60
2022-10-07T15:20:54.967Z,1.53
2022-10-07T15:23:41.972Z,1.80
2022-10-07T15:26:28.864Z,1.63
2022-10-07T15:29:16.385Z,1.70
2022-10-07T15:32:03.841Z,1.70
2022-10-07T15:34:55.865Z,1.57
2022-10-07T15:37:48.121Z,2.13
2022-10-07T15:40:52.282Z,2.17
2022-10-07T15:43:39.271Z,1.83
2022-10-07T15:46:27.751Z,2.00
2022-10-07T15:49:17.062Z,1.53
2022-10-07T15:52:09.027Z,1.73
2022-10-07T15:54:56.514Z,1.90
2022-10-07T15:57:43.439Z,1.80
2022-10-07T16:00:31.612Z,1.60
2022-10-07T16:03:19.043Z,1.90
2022-10-07T16:06:21.589Z,2.40
2022-10-07T16:09:08.499Z,1.60
2022-10-07T16:11:55.407Z,1.90
2022-10-07T16:14:42.444Z,1.90
2022-10-07T16:17:29.978Z,1.80
2022-10-07T16:20:18.480Z,2.40
2022-10-07T16:23:05.496Z,1.90
2022-10-07T16:25:52.435Z,1.80
2022-10-07T16:28:59.508Z,2.33
2022-10-07T16:31:47.988Z,1.90
2022-10-07T16:34:35.043Z,2.10
2022-10-07T16:37:22.028Z,2.13
2022-10-07T16:40:09.275Z,1.83
2022-10-07T16:42:59.239Z,1.77
2022-10-07T16:45:46.529Z,2.30
2022-10-07T16:48:38.815Z,1.70
2022-10-07T16:51:35.449Z,1.93
2022-10-07T16:54:22.566Z,2.20
2022-10-07T16:57:09.638Z,1.93
2022-10-07T16:59:57.587Z,2.17
2022-10-07T17:02:44.566Z,2.23
2022-10-07T17:05:31.574Z,3.00
2022-10-07T17:08:18.456Z,2.70
2022-10-07T17:11:05.827Z,2.50
2022-10-07T17:13:53.087Z,2.70
2022-10-07T17:16:42.975Z,3.33
2022-10-07T17:19:29.882Z,3.03
2022-10-07T17:22:17.852Z,2.50
2022-10-07T17:25:05.217Z,3.00
2022-10-07T17:27:52.068Z,2.97
2022-10-07T17:30:39.396Z,3.13
2022-10-07T17:33:26.218Z,2.70
2022-10-07T17:36:13.280Z,3.30
2022-10-07T17:39:00.619Z,3.13
2022-10-07T17:41:48.190Z,2.60
2022-10-07T17:44:35.259Z,3.43
2022-10-07T17:47:22.442Z,3.17
2022-10-07T17:50:09.633Z,3.77
2022-10-07T17:52:57.446Z,3.20
2022-10-07T17:55:51.212Z,3.07
2022-10-07T17:58:39.770Z,3.03
2022-10-07T18:01:29.546Z,3.57
2022-10-07T18:04:23.674Z,3.47
2022-10-07T18:07:12.649Z,3.10
2022-10-07T18:09:59.698Z,4.10
2022-10-07T18:13:05.887Z,3.53
2022-10-07T18:16:01.979Z,3.53
2022-10-07T18:18:54.689Z,3.67
2022-10-07T18:21:41.915Z,3.40
2022-10-07T18:24:29.556Z,3.97
2022-10-07T18:27:16.626Z,4.00
2022-10-07T18:30:05.143Z,3.47
2022-10-07T18:32:52.702Z,4.07
2022-10-07T18:35:41.873Z,4.47
2022-10-07T18:38:33.771Z,3.60
2022-10-07T18:41:22.581Z,3.83
2022-10-07T18:44:10.788Z,4.10
2022-10-07T18:46:58.673Z,3.90
2022-10-07T18:49:45.667Z,3.73
2022-10-07T18:52:32.732Z,4.37
2022-10-07T18:55:21.116Z,4.40
2022-10-07T18:58:10.435Z,4.17
2022-10-07T19:00:57.504Z,4.50
2022-10-07T19:03:45.520Z,4.10
2022-10-07T19:06:35.322Z,4.20
2022-10-07T19:09:22.582Z,4.10
2022-10-07T19:12:29.550Z,5.20
2022-10-07T19:15:17.699Z,4.80
2022-10-07T19:18:06.050Z,4.40
2022-10-07T19:21:00.142Z,4.57
2022-10-07T19:23:52.118Z,5.13
2022-10-07T19:26:42.684Z,5.20
2022-10-07T19:29:29.746Z,4.43
2022-10-07T19:32:17.036Z,4.17
2022-10-07T19:35:06.538Z,4.93
2022-10-07T19:37:53.427Z,3.73
2022-10-07T19:40:42.170Z,4.37
2022-10-07T19:43:29.678Z,4.23
2022-10-07T19:46:19.358Z,4.73
2022-10-07T19:49:09.268Z,4.67
2022-10-07T19:51:56.216Z,4.40
2022-10-07T19:54:45.837Z,4.70
2022-10-07T19:57:32.732Z,4.70
2022-10-07T20:00:19.781Z,4.70
2022-10-07T20:03:06.828Z,4.90
2022-10-07T20:05:53.788Z,4.33
2022-10-07T20:08:42.965Z,4.33
2022-10-07T20:11:30.265Z,4.70
2022-10-07T20:14:18.844Z,4.40
2022-10-07T20:17:06.210Z,4.90
2022-10-07T20:19:56.604Z,3.97
2022-10-07T20:22:47.172Z,4.73
2022-10-07T20:25:39.360Z,4.17
2022-10-07T20:28:26.328Z,4.63
2022-10-07T20:31:15.148Z,4.50
2022-10-07T20:34:02.646Z,4.73
2022-10-07T20:36:50.457Z,4.23
2022-10-07T20:39:57.409Z,4.50
2022-10-07T20:42:46.937Z,5.30
2022-10-07T20:45:54.414Z,4.03
2022-10-07T20:48:45.549Z,4.43
2022-10-07T20:51:34.057Z,5.00
2022-10-07T20:54:23.167Z,4.50
2022-10-07T20:57:13.126Z,4.50
2022-10-07T21:00:00.031Z,4.20
2022-10-07T21:02:47.281Z,4.87
2022-10-07T21:05:34.390Z,4.80
2022-10-07T21:08:21.263Z,4.77
2022-10-07T21:11:08.083Z,4.83
2022-10-07T21:13:56.063Z,3.80
2022-10-07T21:16:43.539Z,3.97
2022-10-07T21:19:35.581Z,4.30
2022-10-07T21:22:22.575Z,4.23
2022-10-07T21:25:11.748Z,4.50
2022-10-07T21:27:59.090Z,4.43
2022-10-07T21:30:58.835Z,3.97
2022-10-07T21:33:48.008Z,4.63
2022-10-07T21:36:37.719Z,4.17
2022-10-07T21:39:26.207Z,3.80
2022-10-07T21:42:13.456Z,4.00
2022-10-07T21:45:01.637Z,4.30
2022-10-07T21:47:49.429Z,4.30
2022-10-07T21:50:37.013Z,4.30
2022-10-07T21:53:24.816Z,3.90
2022-10-07T21:56:13.517Z,4.47
2022-10-07T21:59:01.489Z,4.40
2022-10-07T22:01:48.700Z,4.10
2022-10-07T22:04:35.563Z,4.40
2022-10-07T22:07:41.221Z,4.03
2022-10-07T22:10:28.135Z,4.10
2022-10-07T22:13:14.943Z,4.10
2022-10-07T22:16:04.306Z,4.10
2022-10-07T22:18:53.765Z,4.00
2022-10-07T22:21:42.034Z,4.10
2022-10-07T22:24:31.570Z,3.77
2022-10-07T22:27:19.283Z,4.13
2022-10-07T22:30:09.716Z,6.13
2022-10-07T22:33:00.107Z,6.03
2022-10-07T22:35:51.742Z,5.13
2022-10-07T22:38:42.244Z,5.37
2022-10-07T22:41:31.094Z,5.53
2022-10-07T22:44:19.197Z,4.60
2022-10-07T22:47:08.938Z,5.03
2022-10-07T22:49:57.721Z,5.30
2022-10-07T22:52:50.023Z,4.63
2022-10-07T22:55:42.161Z,5.13
2022-10-07T22:58:30.447Z,4.47
2022-10-07T23:01:18.209Z,4.50
2022-10-07T23:04:05.609Z,5.10
2022-10-07T23:06:54.675Z,4.50
2022-10-07T23:09:43.494Z,5.30
2022-10-07T23:12:33.783Z,4.77
2022-10-07T23:15:26.122Z,5.10
2022-10-07T23:18:15.594Z,4.40
2022-10-07T23:21:09.642Z,4.80
2022-10-07T23:24:06.010Z,5.13
2022-10-07T23:26:56.539Z,4.23
2022-10-07T23:29:47.296Z,4.70
2022-10-07T23:32:39.620Z,4.23
2022-10-07T23:35:29.705Z,4.10
2022-10-07T23:38:20.374Z,4.50
2022-10-07T23:41:09.098Z,4.00
2022-10-07T23:43:58.357Z,3.80
2022-10-07T23:46:46.427Z,4.43
2022-10-07T23:49:34.817Z,3.83
2022-10-07T23:52:22.522Z,3.90
2022-10-07T23:55:12.915Z,4.00
2022-10-07T23:57:59.983Z,3.87
